This is the latest recevied weather packets stored in our database for station/object KC0RPY. If no packets are shown the sender has not sent any weather packets the latest 1 day(s).
| Time | Temp. | Humidity | Pressure | Rain* | Wind** | Luminosity | Snow |
|---|---|---|---|---|---|---|---|
| 1778031509 | 8.89° C | 96% | 1012.8 hPa | 0 mm | 0 m/s | 0 W/m² | - |
| 1778031207 | 8.89° C | 96% | 1012.8 hPa | 0 mm | 0 m/s | 0 W/m² | - |
| 1778030903 | 8.89° C | 96% | 1012.8 hPa | 0 mm | 0 m/s | 0 W/m² | - |
| 1778030601 | 8.89° C | 96% | 1012.5 hPa | 0 mm | 0 m/s | 0 W/m² | - |
| 1778030298 | 9.44° C | 96% | 1012.5 hPa | 0 mm | 0 m/s | 0 W/m² | - |
| 1778029994 | 8.89° C | 96% | 1012.5 hPa | 0 mm | 0 m/s | 3 W/m² | - |
| 1778029692 | 9.44° C | 96% | 1012.8 hPa | 0 mm | 0 m/s | 5 W/m² | - |
| 1778029390 | 9.44° C | 96% | 1012.8 hPa | 0 mm | 0.45 m/s, 135° | 9 W/m² | - |
| 1778029086 | 9.44° C | 96% | 1012.5 hPa | 0 mm | 0.45 m/s, 134° | 10 W/m² | - |
| 1778028783 | 8.89° C | 96% | 1012.5 hPa | 0 mm | 0.45 m/s, 135° | 14 W/m² | - |
| 1778028479 | 9.44° C | 96% | 1012.5 hPa | 0 mm | 0.45 m/s, 110° | 20 W/m² | - |
| 1778028177 | 8.89° C | 96% | 1012.5 hPa | 0 mm | 0.45 m/s, 153° | 23 W/m² | - |
| 1778027873 | 9.44° C | 96% | 1012.8 hPa | 0 mm | 0.45 m/s, 139° | 20 W/m² | - |
| 1778027569 | 9.44° C | 96% | 1012.5 hPa | 0 mm | 0 m/s | 28 W/m² | - |
| 1778027265 | 8.89° C | 96% | 1012.5 hPa | 0 mm | 0.89 m/s, 168° | 33 W/m² | - |
| 1778026962 | 8.89° C | 96% | 1012.5 hPa | 0 mm | 0.45 m/s, 128° | 35 W/m² | - |
| 1778026658 | 8.89° C | 96% | 1012.8 hPa | 0 mm | 1.34 m/s, 87° | 36 W/m² | - |
| 1778026355 | 8.89° C | 96% | 1012.5 hPa | 0 mm | 0.45 m/s, 149° | 38 W/m² | - |
| 1778026052 | 8.89° C | 96% | 1012.5 hPa | 0 mm | 0 m/s | 49 W/m² | - |
| 1778025750 | 8.89° C | 96% | 1012.2 hPa | 0 mm | 0.45 m/s, 127° | 50 W/m² | - |
| 1778025446 | 9.44° C | 96% | 1012.2 hPa | 0 mm | 0.89 m/s, 91° | 54 W/m² | - |
| 1778025144 | 9.44° C | 96% | 1012.5 hPa | 0 mm | 1.34 m/s, 40° | 61 W/m² | - |
| 1778024841 | 9.44° C | 96% | 1012.5 hPa | 0 mm | 0.89 m/s, 123° | 167 W/m² | - |
| 1778024538 | 9.44° C | 96% | 1012.5 hPa | 0 mm | 0.89 m/s, 21° | 180 W/m² | - |
| 1778024234 | 9.44° C | 96% | 1012.2 hPa | 0 mm | 0.45 m/s, 131° | 142 W/m² | - |
* Rain latest hour (hover to see other rain measurements)
** Current wind speed in m/s (hover to see current wind gust speed)